Time;durP1;ratioP1;P1;durP2;ratioP2;P2;SDS_P1;SDS_P2;PMS_P1;PMS_P2;Temp;Humidity;BMP_temperature;BMP_pressure;BME280_temperature;BME280_humidity;BME280_pressure;Samples;Min_cycle;Max_cycle;Signal;HPM_P1;HPM_P2
2022/08/22 00:00:56;;;;;;;4.57;2.00;;;17.30;99.90;;;;;;5096952;28;20203;-53
2022/08/22 00:03:35;;;;;;;3.00;2.10;;;17.30;99.90;;;;;;5108804;28;20255;-52
2022/08/22 00:06:19;;;;;;;2.58;2.00;;;17.20;99.90;;;;;;5129150;28;20236;-53
2022/08/22 00:09:07;;;;;;;4.25;2.20;;;17.20;99.90;;;;;;5129919;28;20236;-53
2022/08/22 00:11:43;;;;;;;4.55;2.25;;;17.10;99.90;;;;;;5127996;28;20758;-52
2022/08/22 00:14:20;;;;;;;4.10;2.47;;;17.10;99.90;;;;;;5129832;28;20230;-52
2022/08/22 00:16:59;;;;;;;2.22;2.03;;;17.00;99.90;;;;;;5130383;28;20616;-53
2022/08/22 00:19:38;;;;;;;5.25;2.33;;;17.00;99.90;;;;;;5129919;28;20198;-52
2022/08/22 00:22:16;;;;;;;2.90;2.08;;;17.00;99.90;;;;;;5116393;28;20323;-53
2022/08/22 00:24:51;;;;;;;2.97;2.40;;;17.00;99.90;;;;;;5109044;28;20200;-52
2022/08/22 00:27:24;;;;;;;2.90;2.10;;;16.90;99.90;;;;;;5109218;28;20292;-52
2022/08/22 00:29:57;;;;;;;3.75;2.28;;;16.80;99.90;;;;;;5107340;28;20617;-53
2022/08/22 00:32:33;;;;;;;3.50;2.17;;;16.80;99.90;;;;;;5108147;28;20280;-52
2022/08/22 00:35:07;;;;;;;3.25;2.35;;;16.80;99.90;;;;;;5109430;28;20217;-52
2022/08/22 00:37:41;;;;;;;3.33;2.10;;;16.80;99.90;;;;;;5095154;28;20207;-52
2022/08/22 00:40:22;;;;;;;4.13;2.60;;;16.80;99.90;;;;;;5109035;28;20203;-52
2022/08/22 00:43:14;;;;;;;5.15;2.15;;;16.70;99.90;;;;;;5109200;28;20223;-52
2022/08/22 00:45:58;;;;;;;2.75;2.45;;;16.70;99.90;;;;;;5111769;28;20253;-52
2022/08/22 00:49:02;;;;;;;2.88;2.28;;;16.60;99.90;;;;;;5113144;28;20688;-53
2022/08/22 00:52:09;;;;;;;4.78;2.30;;;16.60;99.90;;;;;;5102979;28;20636;-52
2022/08/22 00:54:53;;;;;;;4.07;2.38;;;16.50;99.90;;;;;;5096761;28;20772;-52
2022/08/22 00:57:34;;;;;;;4.15;2.10;;;16.40;99.90;;;;;;5112629;28;20203;-52
2022/08/22 01:00:10;;;;;;;2.70;2.20;;;16.40;99.90;;;;;;5099287;28;20659;-52
2022/08/22 01:03:01;;;;;;;2.72;1.90;;;16.40;99.90;;;;;;5112595;28;20671;-53
2022/08/22 01:05:56;;;;;;;5.03;2.30;;;16.30;99.90;;;;;;5112862;28;20199;-52
2022/08/22 01:08:39;;;;;;;3.88;2.30;;;16.30;99.90;;;;;;5112405;28;20899;-52
2022/08/22 01:11:26;;;;;;;4.70;2.20;;;16.20;99.90;;;;;;5112522;28;20618;-52
2022/08/22 01:14:13;;;;;;;2.90;1.88;;;16.20;99.90;;;;;;5101103;28;20227;-53
2022/08/22 01:17:00;;;;;;;3.10;2.00;;;16.20;99.90;;;;;;5112510;28;20268;-52
2022/08/22 01:20:10;;;;;;;4.63;2.42;;;16.20;99.90;;;;;;5112424;28;20207;-52
2022/08/22 01:23:11;;;;;;;3.75;2.13;;;16.10;99.90;;;;;;5103968;28;20269;-53
2022/08/22 01:26:18;;;;;;;6.00;2.25;;;16.10;99.90;;;;;;5099583;28;20207;-53
2022/08/22 01:29:18;;;;;;;3.88;2.10;;;16.10;99.90;;;;;;5105011;28;20249;-52
2022/08/22 01:32:34;;;;;;;5.43;2.40;;;16.00;99.90;;;;;;5111460;28;20711;-53
2022/08/22 01:35:22;;;;;;;3.53;2.22;;;16.00;99.90;;;;;;5105221;28;20196;-53
2022/08/22 01:38:17;;;;;;;5.15;2.70;;;15.90;99.90;;;;;;5100879;28;20261;-52
2022/08/22 01:41:16;;;;;;;5.00;2.30;;;15.80;99.90;;;;;;5111665;28;20207;-53
2022/08/22 01:44:13;;;;;;;3.15;2.28;;;15.80;99.90;;;;;;5110661;28;20650;-53
2022/08/22 01:46:51;;;;;;;5.45;2.45;;;15.80;99.90;;;;;;5112126;28;20265;-53
2022/08/22 01:49:26;;;;;;;5.43;2.50;;;15.80;99.90;;;;;;5112130;28;20203;-52
2022/08/22 01:52:04;;;;;;;5.50;2.33;;;15.70;99.90;;;;;;5112172;28;20798;-52
2022/08/22 01:54:48;;;;;;;3.33;2.40;;;15.70;99.90;;;;;;5097910;28;20219;-53
2022/08/22 01:57:18;;;;;;;3.10;2.10;;;15.60;99.90;;;;;;5110478;28;20260;-52
2022/08/22 01:59:48;;;;;;;5.60;2.50;;;15.60;99.90;;;;;;5112158;28;20211;-53
2022/08/22 02:02:30;;;;;;;3.63;2.50;;;15.60;99.90;;;;;;5111142;28;20781;-53
2022/08/22 02:05:06;;;;;;;4.40;2.13;;;15.60;99.90;;;;;;5111554;28;20207;-53
2022/08/22 02:07:48;;;;;;;2.97;2.00;;;15.50;99.90;;;;;;5110893;28;20214;-53
2022/08/22 02:10:23;;;;;;;5.47;2.20;;;15.50;99.90;;;;;;5111003;28;20668;-53
2022/08/22 02:13:02;;;;;;;3.10;2.00;;;15.40;99.90;;;;;;5111369;28;20719;-51
2022/08/22 02:15:43;;;;;;;5.10;2.57;;;15.40;99.90;;;;;;5111018;28;20200;-53
2022/08/22 02:18:18;;;;;;;3.27;2.30;;;15.30;99.90;;;;;;5111221;28;20199;-52
2022/08/22 02:21:05;;;;;;;3.97;2.40;;;15.20;99.90;;;;;;5111168;28;20211;-53
2022/08/22 02:23:50;;;;;;;4.90;2.40;;;15.10;99.90;;;;;;5098560;28;20277;-53
2022/08/22 02:26:23;;;;;;;3.17;2.17;;;15.10;99.90;;;;;;5110602;28;20290;-52
2022/08/22 02:28:57;;;;;;;4.77;2.17;;;15.10;99.90;;;;;;5107979;28;20264;-53
2022/08/22 02:31:37;;;;;;;2.40;2.20;;;15.10;99.90;;;;;;5110305;28;20202;-53
2022/08/22 02:34:24;;;;;;;3.10;2.70;;;15.10;99.90;;;;;;5096595;28;20300;-53
2022/08/22 02:36:58;;;;;;;2.17;1.97;;;15.10;99.90;;;;;;5111058;28;20259;-53
2022/08/22 02:39:35;;;;;;;3.03;2.30;;;15.00;99.90;;;;;;5110763;28;20362;-53
2022/08/22 02:42:16;;;;;;;3.87;2.37;;;15.00;99.90;;;;;;5111110;28;20227;-52
2022/08/22 02:44:55;;;;;;;3.17;2.20;;;14.90;99.90;;;;;;5109976;28;20883;-53
2022/08/22 02:47:31;;;;;;;2.30;2.10;;;15.00;99.90;;;;;;5109929;28;20204;-53
2022/08/22 02:50:09;;;;;;;5.63;2.43;;;15.00;99.90;;;;;;5110158;28;20635;-53
2022/08/22 02:52:52;;;;;;;4.20;1.90;;;15.00;99.90;;;;;;5109794;28;20234;-51
2022/08/22 02:55:34;;;;;;;4.17;2.40;;;15.00;99.90;;;;;;5110248;28;20279;-52
2022/08/22 02:58:11;;;;;;;2.40;2.20;;;14.90;99.90;;;;;;5097726;28;20200;-52
2022/08/22 03:00:47;;;;;;;2.90;2.37;;;14.90;99.90;;;;;;5110373;28;20264;-53
2022/08/22 03:03:23;;;;;;;3.97;2.40;;;14.90;99.90;;;;;;5110220;28;20646;-53
2022/08/22 03:05:57;;;;;;;4.13;2.53;;;14.90;99.90;;;;;;5110565;28;20207;-52
2022/08/22 03:08:31;;;;;;;5.23;2.37;;;14.90;99.90;;;;;;5109094;28;20672;-52
2022/08/22 03:11:19;;;;;;;2.93;2.33;;;14.80;99.90;;;;;;5109735;28;20211;-52
2022/08/22 03:14:03;;;;;;;2.40;2.20;;;14.90;99.90;;;;;;5109896;28;20272;-52
2022/08/22 03:16:36;;;;;;;3.50;2.20;;;14.80;99.90;;;;;;5110514;28;20203;-52
2022/08/22 03:19:08;;;;;;;2.33;2.13;;;14.80;99.90;;;;;;5109335;28;20204;-53
2022/08/22 03:21:52;;;;;;;3.57;2.60;;;14.80;99.90;;;;;;5110532;28;20199;-53
2022/08/22 03:24:25;;;;;;;5.67;2.57;;;14.80;99.90;;;;;;5109818;28;20236;-53
2022/08/22 03:27:01;;;;;;;5.53;2.50;;;14.80;99.90;;;;;;5096798;28;20246;-52
2022/08/22 03:29:34;;;;;;;2.93;2.07;;;14.70;99.90;;;;;;5099545;28;20207;-52
2022/08/22 03:32:10;;;;;;;2.30;2.03;;;14.70;99.90;;;;;;5108279;28;20256;-51
2022/08/22 03:34:53;;;;;;;4.57;2.50;;;14.60;99.90;;;;;;5100985;28;20227;-51
2022/08/22 03:37:26;;;;;;;3.03;2.60;;;14.60;99.90;;;;;;5108973;28;20990;-52
2022/08/22 03:40:00;;;;;;;5.70;2.70;;;14.60;99.90;;;;;;5109241;28;20670;-53
2022/08/22 03:43:11;;;;;;;3.43;2.60;;;14.60;99.90;;;;;;5109265;28;20223;-52
2022/08/22 03:46:18;;;;;;;4.33;2.53;;;14.60;99.90;;;;;;5103737;28;20237;-52
2022/08/22 03:49:04;;;;;;;3.57;2.53;;;14.60;99.90;;;;;;5104031;28;20728;-53
2022/08/22 03:51:45;;;;;;;5.47;2.70;;;14.60;99.90;;;;;;5121092;27;20664;-52
2022/08/22 03:54:48;;;;;;;6.33;2.77;;;14.60;99.90;;;;;;5114151;28;20267;-52
2022/08/22 03:57:55;;;;;;;3.10;2.63;;;14.60;99.90;;;;;;5123205;28;20238;-52
2022/08/22 04:00:50;;;;;;;4.87;2.83;;;14.60;99.90;;;;;;5121496;28;20234;-52
2022/08/22 04:03:58;;;;;;;2.57;2.33;;;14.50;99.90;;;;;;5124395;28;20757;-52
2022/08/22 04:07:01;;;;;;;3.80;2.27;;;14.50;99.90;;;;;;5123646;28;20687;-52
2022/08/22 04:09:53;;;;;;;7.43;4.40;;;14.50;99.90;;;;;;5077082;28;20211;-53
2022/08/22 04:12:57;;;;;;;5.27;2.70;;;14.50;99.90;;;;;;5106990;28;20315;-51
2022/08/22 04:15:45;;;;;;;5.17;3.27;;;14.50;99.90;;;;;;5080278;28;20265;-53
2022/08/22 04:18:35;;;;;;;3.33;2.80;;;14.40;99.90;;;;;;5126317;28;20211;-52
2022/08/22 04:21:34;;;;;;;5.37;2.50;;;14.40;99.90;;;;;;5129707;27;20194;-52
2022/08/22 04:24:30;;;;;;;3.37;2.77;;;14.40;99.90;;;;;;5123519;27;20222;-52
2022/08/22 04:27:07;;;;;;;3.00;2.63;;;14.30;99.90;;;;;;5129787;27;20255;-52
2022/08/22 04:29:41;;;;;;;5.03;2.47;;;14.30;99.90;;;;;;5126426;27;20207;-52
2022/08/22 04:32:17;;;;;;;5.77;2.63;;;14.20;99.90;;;;;;5124725;27;20631;-52
2022/08/22 04:34:50;;;;;;;6.23;2.60;;;14.20;99.90;;;;;;5125348;27;20222;-52
2022/08/22 04:37:24;;;;;;;5.87;2.80;;;14.20;99.90;;;;;;5129715;27;20207;-52
2022/08/22 04:39:59;;;;;;;3.73;2.57;;;14.30;99.90;;;;;;5131565;27;20224;-51
2022/08/22 04:42:33;;;;;;;5.03;2.73;;;14.30;99.90;;;;;;5119843;27;20227;-52
2022/08/22 04:45:07;;;;;;;4.37;2.70;;;14.40;99.90;;;;;;5103968;27;20201;-51
2022/08/22 04:47:39;;;;;;;6.63;2.70;;;14.40;99.90;;;;;;5111388;28;20683;-52
2022/08/22 04:50:13;;;;;;;3.23;2.30;;;14.40;99.90;;;;;;5104608;28;20292;-51
2022/08/22 04:53:02;;;;;;;4.63;2.50;;;14.50;99.90;;;;;;5110880;28;20223;-53
2022/08/22 04:55:40;;;;;;;5.17;2.93;;;14.50;99.90;;;;;;5106755;28;20348;-52
2022/08/22 04:58:22;;;;;;;3.67;2.60;;;14.70;99.90;;;;;;5112294;28;20606;-52
2022/08/22 05:00:56;;;;;;;3.97;2.50;;;15.30;99.90;;;;;;5112540;28;20207;-52
2022/08/22 05:03:28;;;;;;;3.97;2.83;;;15.90;99.90;;;;;;5112632;28;20265;-52
2022/08/22 05:05:59;;;;;;;5.13;2.42;;;16.30;99.90;;;;;;5113083;28;20192;-52
2022/08/22 05:08:33;;;;;;;4.50;2.35;;;16.70;99.90;;;;;;5112360;28;20304;-52
2022/08/22 05:11:03;;;;;;;4.28;2.38;;;17.00;99.90;;;;;;5112102;28;20233;-52
2022/08/22 05:13:34;;;;;;;3.97;2.88;;;17.30;99.90;;;;;;5117737;27;20275;-51
2022/08/22 05:16:05;;;;;;;5.40;2.38;;;17.60;99.90;;;;;;5123111;27;20203;-52
2022/08/22 05:18:38;;;;;;;2.92;2.30;;;17.80;99.90;;;;;;5103632;28;20203;-52
2022/08/22 05:21:10;;;;;;;3.95;2.83;;;18.00;99.90;;;;;;5112780;28;20277;-51
2022/08/22 05:23:44;;;;;;;4.53;2.38;;;18.30;99.90;;;;;;5103894;28;20295;-53
2022/08/22 05:26:15;;;;;;;5.47;2.80;;;18.20;99.90;;;;;;5111172;28;20195;-52
2022/08/22 05:28:49;;;;;;;4.00;2.50;;;18.20;99.90;;;;;;5111516;28;20740;-52
2022/08/22 05:31:25;;;;;;;3.97;2.25;;;17.90;99.90;;;;;;5112149;28;20253;-52
2022/08/22 05:33:56;;;;;;;3.28;2.30;;;17.60;99.90;;;;;;5112784;27;20220;-53
2022/08/22 05:36:26;;;;;;;3.08;2.35;;;17.80;99.90;;;;;;5120548;27;20216;-53
2022/08/22 05:38:59;;;;;;;6.85;2.67;;;18.10;99.90;;;;;;5110215;28;20200;-52
2022/08/22 05:41:30;;;;;;;4.13;2.85;;;18.10;99.90;;;;;;5109134;27;20256;-53
2022/08/22 05:43:59;;;;;;;4.60;3.00;;;17.80;99.90;;;;;;5113795;27;20700;-52
2022/08/22 05:46:38;;;;;;;3.90;2.53;;;17.70;99.90;;;;;;5110304;28;20676;-53
2022/08/22 05:49:17;;;;;;;4.05;2.80;;;17.40;99.90;;;;;;5110567;28;20200;-52
2022/08/22 05:52:02;;;;;;;5.20;2.75;;;17.40;99.90;;;;;;5110893;28;20207;-52
2022/08/22 05:54:43;;;;;;;7.95;3.30;;;17.40;99.90;;;;;;5111553;28;20207;-52
2022/08/22 05:57:20;;;;;;;4.78;2.78;;;17.40;99.90;;;;;;5111465;28;20756;-52
2022/08/22 05:59:55;;;;;;;5.80;3.33;;;17.40;99.90;;;;;;5099274;28;20458;-52
2022/08/22 06:02:37;;;;;;;3.25;2.53;;;17.40;99.90;;;;;;5110437;28;20234;-52
2022/08/22 06:05:07;;;;;;;5.82;2.83;;;17.40;99.90;;;;;;5111600;28;20836;-52
2022/08/22 06:07:44;;;;;;;6.15;2.90;;;17.20;99.90;;;;;;5111105;28;20226;-52
2022/08/22 06:10:23;;;;;;;4.30;3.00;;;17.30;99.90;;;;;;5110710;28;20230;-52
2022/08/22 06:12:57;;;;;;;3.92;2.67;;;17.50;99.90;;;;;;5111252;28;20280;-52
2022/08/22 06:15:34;;;;;;;3.28;2.97;;;18.10;99.90;;;;;;5111189;28;20347;-53
2022/08/22 06:18:09;;;;;;;3.55;2.70;;;18.60;99.90;;;;;;5110357;28;20244;-53
2022/08/22 06:20:41;;;;;;;5.28;2.92;;;18.70;99.90;;;;;;5110127;28;20264;-52
2022/08/22 06:23:14;;;;;;;4.03;3.03;;;18.70;99.90;;;;;;5110440;28;20223;-52
2022/08/22 06:25:46;;;;;;;5.15;3.20;;;19.30;99.90;;;;;;5110518;28;20225;-51
2022/08/22 06:28:21;;;;;;;6.00;2.88;;;19.90;99.90;;;;;;5110774;28;20200;-53
2022/08/22 06:30:52;;;;;;;3.97;2.55;;;20.40;99.90;;;;;;5113496;27;20259;-53
2022/08/22 06:33:27;;;;;;;4.72;2.55;;;20.70;99.90;;;;;;5124068;27;20230;-53
2022/08/22 06:39:02;;;;;;;5.32;2.80;;;21.50;99.90;;;;;;5110015;28;20909;-52
2022/08/22 06:41:36;;;;;;;5.75;2.50;;;21.90;99.90;;;;;;5109930;28;20216;-52
2022/08/22 06:44:06;;;;;;;4.28;2.60;;;22.10;99.90;;;;;;5109223;28;20696;-53
2022/08/22 06:46:37;;;;;;;4.75;2.47;;;22.20;99.90;;;;;;5116988;27;20733;-53
2022/08/22 06:49:07;;;;;;;3.92;2.53;;;22.50;99.90;;;;;;5109527;28;20196;-52
2022/08/22 06:51:37;;;;;;;4.60;2.65;;;22.60;99.90;;;;;;5109888;28;20257;-52
2022/08/22 06:54:14;;;;;;;6.28;2.67;;;22.70;99.90;;;;;;5106786;28;20296;-53
2022/08/22 06:56:48;;;;;;;5.47;2.42;;;22.90;99.90;;;;;;5110108;28;20560;-53
2022/08/22 06:59:19;;;;;;;5.25;2.65;;;23.10;99.90;;;;;;5110388;28;20253;-53
2022/08/22 07:01:52;;;;;;;7.38;2.65;;;23.30;99.90;;;;;;5101401;28;20244;-54
2022/08/22 07:04:25;;;;;;;4.82;2.60;;;23.60;99.90;;;;;;5105748;28;20207;-51
2022/08/22 07:06:56;;;;;;;4.32;2.58;;;23.60;99.90;;;;;;5109018;28;20203;-51
2022/08/22 07:09:27;;;;;;;3.85;2.45;;;23.90;99.90;;;;;;5109575;27;20223;-52
2022/08/22 07:12:00;;;;;;;3.38;2.40;;;24.10;99.90;;;;;;5109074;28;20203;-53
2022/08/22 07:14:38;;;;;;;4.38;2.35;;;24.10;99.90;;;;;;5108406;28;20244;-52
2022/08/22 07:17:08;;;;;;;3.00;2.08;;;24.40;99.90;;;;;;5118371;27;20620;-52
2022/08/22 07:19:38;;;;;;;7.25;2.58;;;24.70;99.90;;;;;;5101808;28;20919;-52
2022/08/22 07:22:12;;;;;;;5.38;2.40;;;24.90;99.90;;;;;;5104726;27;20716;-53
2022/08/22 07:24:46;;;;;;;5.13;2.35;;;24.80;99.90;;;;;;5107758;28;20237;-53
2022/08/22 07:27:28;;;;;;;3.03;2.13;;;24.70;99.90;;;;;;5109202;28;20199;-52
2022/08/22 07:30:05;;;;;;;3.78;2.40;;;24.70;99.90;;;;;;5103047;28;20211;-52
2022/08/22 07:32:50;;;;;;;3.67;2.40;;;24.80;99.90;;;;;;5096800;28;20229;-52
2022/08/22 07:35:23;;;;;;;3.55;2.30;;;24.60;99.90;;;;;;5109153;28;20235;-51
2022/08/22 07:38:03;;;;;;;3.60;2.22;;;24.50;99.90;;;;;;5108770;28;20212;-52
2022/08/22 07:40:37;;;;;;;4.82;2.08;;;24.40;99.90;;;;;;5109381;28;20244;-52
2022/08/22 07:43:15;;;;;;;3.97;2.65;;;24.80;99.90;;;;;;5103355;28;20235;-52
2022/08/22 07:45:50;;;;;;;4.25;2.38;;;25.20;99.90;;;;;;5106808;28;20199;-52
2022/08/22 07:48:23;;;;;;;4.32;2.10;;;25.00;99.90;;;;;;5109310;28;20207;-52
2022/08/22 07:51:07;;;;;;;4.13;2.67;;;25.20;99.90;;;;;;5108489;28;20690;-54
2022/08/22 07:53:40;;;;;;;4.40;2.30;;;25.40;99.90;;;;;;5107870;28;20715;-53
2022/08/22 07:56:14;;;;;;;5.70;2.35;;;25.40;99.90;;;;;;5108177;28;20260;-52
2022/08/22 07:58:46;;;;;;;5.22;2.60;;;25.40;99.90;;;;;;5109434;28;20200;-53
2022/08/22 08:01:19;;;;;;;3.65;2.40;;;25.20;99.90;;;;;;5109253;28;20199;-52
2022/08/22 08:03:53;;;;;;;3.97;2.42;;;25.60;99.90;;;;;;5108955;28;20258;-52
2022/08/22 08:06:23;;;;;;;2.92;2.15;;;25.30;99.90;;;;;;5109377;28;20198;-52
2022/08/22 08:08:52;;;;;;;10.77;3.40;;;25.20;99.90;;;;;;5107683;28;20219;-52
2022/08/22 08:11:24;;;;;;;3.67;2.38;;;25.60;99.90;;;;;;5108768;28;20922;-53
2022/08/22 08:13:57;;;;;;;6.35;2.58;;;25.30;99.90;;;;;;5108692;28;20580;-52
2022/08/22 08:16:33;;;;;;;3.53;2.47;;;25.30;99.90;;;;;;5108992;28;20227;-52
2022/08/22 08:19:02;;;;;;;6.32;2.63;;;25.30;99.90;;;;;;5108342;28;20207;-52
2022/08/22 08:21:35;;;;;;;5.85;2.50;;;25.30;99.90;;;;;;5108984;28;20264;-52
2022/08/22 08:24:07;;;;;;;6.55;2.45;;;25.50;99.90;;;;;;5108081;28;20231;-52
2022/08/22 08:28:32;;;;;;;5.70;2.53;;;25.90;99.90;;;;;;5108263;28;20680;-52
2022/08/22 08:29:29;;;;;;;4.90;2.90;;;26.10;99.90;;;;;;5108561;28;20215;-52
2022/08/22 08:31:59;;;;;;;4.78;2.63;;;26.00;99.90;;;;;;5108819;28;20207;-53
2022/08/22 08:34:28;;;;;;;5.88;2.67;;;25.90;99.90;;;;;;5106630;28;20628;-52
2022/08/22 08:37:02;;;;;;;2.97;2.53;;;26.00;99.90;;;;;;5108980;28;20336;-53
2022/08/22 08:39:35;;;;;;;4.88;2.60;;;26.30;99.90;;;;;;5107179;28;20204;-53
2022/08/22 08:45:36;;;;;;;5.00;2.47;;;26.70;99.90;;;;;;5102602;28;20199;-52
2022/08/22 08:48:28;;;;;;;3.97;2.75;;;26.90;99.90;;;;;;5108801;28;20204;-52
2022/08/22 08:51:13;;;;;;;6.40;3.30;;;27.00;99.90;;;;;;5108755;28;20204;-52
2022/08/22 08:54:15;;;;;;;6.32;3.13;;;26.70;99.90;;;;;;5108940;28;20231;-52
2022/08/22 08:56:53;;;;;;;4.40;3.20;;;26.50;99.90;;;;;;5096748;28;20261;-52
2022/08/22 08:59:32;;;;;;;8.18;3.38;;;26.10;99.90;;;;;;5109185;28;20284;-52
2022/08/22 09:02:19;;;;;;;5.35;3.60;;;25.70;99.90;;;;;;5108630;28;20211;-52
2022/08/22 09:05:40;;;;;;;5.18;3.70;;;25.50;99.90;;;;;;5115334;27;20812;-52
2022/08/22 09:08:36;;;;;;;4.38;3.63;;;25.60;99.90;;;;;;5108978;28;20212;-52
2022/08/22 09:11:45;;;;;;;6.75;3.63;;;25.60;99.90;;;;;;5112232;28;20203;-52
2022/08/22 09:14:25;;;;;;;4.53;3.42;;;25.90;99.90;;;;;;5106528;28;20211;-52
2022/08/22 09:17:47;;;;;;;6.15;3.47;;;26.00;99.90;;;;;;5103225;28;20241;-52
2022/08/22 09:20:50;;;;;;;4.95;3.13;;;26.10;99.90;;;;;;5099299;28;20208;-53
2022/08/22 09:24:04;;;;;;;4.63;3.50;;;26.10;99.90;;;;;;5092563;28;20228;-53
2022/08/22 09:26:45;;;;;;;5.30;3.35;;;26.20;99.90;;;;;;5110352;28;20212;-52
2022/08/22 09:29:33;;;;;;;5.90;3.45;;;26.20;99.90;;;;;;5118966;27;20251;-52
2022/08/22 09:32:27;;;;;;;5.30;3.10;;;26.00;99.90;;;;;;5111252;28;20219;-53
2022/08/22 09:35:04;;;;;;;4.53;3.13;;;26.10;99.90;;;;;;5109532;28;20203;-53
2022/08/22 09:37:41;;;;;;;6.82;2.83;;;26.20;99.90;;;;;;5097971;28;20272;-54
2022/08/22 09:40:20;;;;;;;4.65;2.95;;;26.20;99.90;;;;;;5111402;28;20675;-52
2022/08/22 09:43:01;;;;;;;4.35;3.10;;;26.30;99.90;;;;;;5111261;28;20590;-52
2022/08/22 09:45:40;;;;;;;6.20;2.97;;;26.30;99.90;;;;;;5111272;28;20260;-52
2022/08/22 09:48:24;;;;;;;5.68;3.40;;;26.30;99.90;;;;;;5111254;28;20226;-52
2022/08/22 09:51:01;;;;;;;4.45;2.92;;;26.30;99.90;;;;;;5110826;28;20617;-52
2022/08/22 09:54:12;;;;;;;4.18;2.75;;;26.30;99.90;;;;;;5100688;28;20672;-52
2022/08/22 09:57:00;;;;;;;6.07;2.90;;;26.50;99.90;;;;;;5113333;27;20248;-51
2022/08/22 09:59:50;;;;;;;5.15;3.05;;;26.50;99.60;;;;;;5109248;28;20241;-53
2022/08/22 10:02:30;;;;;;;4.63;2.97;;;26.40;99.50;;;;;;5108686;28;20644;-53
2022/08/22 10:05:11;;;;;;;5.35;2.97;;;26.60;98.80;;;;;;5106845;28;20907;-52
2022/08/22 10:08:12;;;;;;;3.53;2.95;;;26.60;99.20;;;;;;5108896;28;20214;-53
2022/08/22 10:11:22;;;;;;;4.35;3.08;;;26.90;99.80;;;;;;5109440;28;20207;-52
2022/08/22 10:13:59;;;;;;;6.00;3.03;;;27.00;99.70;;;;;;5086924;27;20223;-53
2022/08/22 10:16:56;;;;;;;6.25;3.35;;;27.00;99.60;;;;;;5131008;27;20206;-51
2022/08/22 10:19:30;;;;;;;3.08;2.72;;;27.00;99.00;;;;;;5104774;28;20281;-52
2022/08/22 10:22:19;;;;;;;6.32;2.90;;;27.10;99.10;;;;;;5120741;27;20203;-53
2022/08/22 10:24:59;;;;;;;5.63;3.45;;;27.10;97.60;;;;;;5112592;27;20664;-52
2022/08/22 10:27:43;;;;;;;5.00;3.33;;;27.10;97.90;;;;;;5111340;28;20256;-53
2022/08/22 10:30:14;;;;;;;5.20;3.50;;;27.30;97.10;;;;;;5123069;27;20690;-52
2022/08/22 10:32:48;;;;;;;5.00;2.95;;;27.30;96.40;;;;;;5107332;28;20224;-52
2022/08/22 10:35:26;;;;;;;4.47;2.88;;;27.40;97.00;;;;;;5110158;28;20208;-53
2022/08/22 10:37:58;;;;;;;6.13;2.70;;;27.40;96.10;;;;;;5110907;28;20219;-52
2022/08/22 10:40:34;;;;;;;8.10;3.08;;;27.50;96.50;;;;;;5112717;27;20207;-51
2022/08/22 10:43:12;;;;;;;3.90;2.65;;;27.70;96.90;;;;;;5127985;27;20224;-52
2022/08/22 10:45:45;;;;;;;5.07;2.88;;;27.90;96.90;;;;;;5127334;27;20195;-53
2022/08/22 10:48:34;;;;;;;5.00;2.60;;;28.10;96.30;;;;;;5110199;28;20211;-52
2022/08/22 10:51:11;;;;;;;4.88;2.70;;;28.20;95.50;;;;;;5109975;28;20208;-52
2022/08/22 10:54:01;;;;;;;3.95;2.80;;;28.30;96.80;;;;;;5120499;27;20226;-52
2022/08/22 10:56:38;;;;;;;5.05;3.10;;;28.40;95.80;;;;;;5085941;27;20216;-51
2022/08/22 10:59:25;;;;;;;3.75;2.58;;;28.50;93.90;;;;;;5105018;28;20368;-52
2022/08/22 11:02:34;;;;;;;4.10;2.42;;;28.50;93.20;;;;;;5109320;28;20207;-52
2022/08/22 11:05:26;;;;;;;3.97;2.50;;;28.50;93.40;;;;;;5105661;28;20203;-52
2022/08/22 11:08:28;;;;;;;3.92;2.45;;;28.30;92.70;;;;;;5101589;28;20211;-53
2022/08/22 11:11:20;;;;;;;6.32;2.90;;;28.40;93.00;;;;;;5081873;28;20321;-53
2022/08/22 11:14:14;;;;;;;5.30;2.75;;;28.60;93.00;;;;;;5108941;28;20909;-53
2022/08/22 11:16:55;;;;;;;5.32;2.33;;;28.70;92.10;;;;;;5108369;28;20231;-53
2022/08/22 11:19:42;;;;;;;4.07;2.53;;;28.80;91.40;;;;;;5107525;28;20223;-53
2022/08/22 11:22:32;;;;;;;4.03;2.75;;;28.80;91.30;;;;;;5107367;28;20307;-53
2022/08/22 11:25:20;;;;;;;3.47;2.35;;;28.80;91.40;;;;;;5108260;28;20207;-54
2022/08/22 11:28:25;;;;;;;4.82;2.80;;;28.60;91.40;;;;;;5109242;28;20195;-52
2022/08/22 11:31:07;;;;;;;6.70;2.60;;;28.10;90.80;;;;;;5106985;28;20237;-53
2022/08/22 11:33:43;;;;;;;5.80;2.70;;;27.70;90.90;;;;;;5100475;28;20280;-52
2022/08/22 11:36:34;;;;;;;4.28;2.65;;;27.50;92.10;;;;;;5108378;28;20207;-53
2022/08/22 11:39:23;;;;;;;4.55;2.55;;;27.90;92.60;;;;;;5098645;28;20224;-52
2022/08/22 11:42:09;;;;;;;5.10;2.70;;;28.20;92.00;;;;;;5108349;28;20212;-53
2022/08/22 11:44:45;;;;;;;4.35;2.58;;;28.30;90.90;;;;;;5108209;28;20236;-52
2022/08/22 11:47:22;;;;;;;8.70;2.60;;;28.50;91.60;;;;;;5106056;28;20195;-51
2022/08/22 11:50:01;;;;;;;4.68;3.13;;;28.60;91.30;;;;;;5107881;28;20212;-53
2022/08/22 11:52:49;;;;;;;4.75;2.63;;;28.80;91.40;;;;;;5105457;28;20276;-52
2022/08/22 11:55:27;;;;;;;4.18;2.40;;;28.90;90.60;;;;;;5101146;28;20203;-53
2022/08/22 11:58:22;;;;;;;3.85;2.60;;;28.90;89.20;;;;;;5096140;28;20203;-53
2022/08/22 12:01:01;;;;;;;3.83;2.30;;;28.90;89.00;;;;;;5100270;28;20234;-53
2022/08/22 12:03:45;;;;;;;3.63;2.55;;;29.20;89.50;;;;;;5107365;28;20229;-53
2022/08/22 12:06:59;;;;;;;4.53;2.40;;;29.10;87.90;;;;;;5103407;28;20603;-53
2022/08/22 12:09:36;;;;;;;5.03;2.50;;;29.10;86.30;;;;;;5108435;28;20260;-53
2022/08/22 12:12:33;;;;;;;3.75;2.50;;;28.80;87.70;;;;;;5101682;28;20279;-52
2022/08/22 12:15:11;;;;;;;6.43;2.55;;;28.90;87.20;;;;;;5095868;28;20231;-53
2022/08/22 12:18:11;;;;;;;5.57;2.70;;;28.90;86.30;;;;;;5107844;28;20207;-52
2022/08/22 12:21:16;;;;;;;4.03;2.60;;;29.00;87.50;;;;;;5106938;28;20200;-53
2022/08/22 12:24:18;;;;;;;3.50;2.45;;;29.00;86.90;;;;;;5107220;28;20242;-52
2022/08/22 12:26:59;;;;;;;4.85;2.50;;;29.00;85.90;;;;;;5069050;28;20204;-52
2022/08/22 12:29:39;;;;;;;3.50;2.28;;;29.10;84.20;;;;;;5105090;28;20206;-53
2022/08/22 12:32:35;;;;;;;5.88;2.47;;;29.10;83.80;;;;;;5106648;28;20227;-52
2022/08/22 12:35:27;;;;;;;5.72;2.60;;;29.20;83.20;;;;;;5102594;28;20204;-52
2022/08/22 12:38:05;;;;;;;4.35;2.53;;;29.10;79.40;;;;;;5098574;28;20204;-53
2022/08/22 12:41:09;;;;;;;2.88;2.10;;;29.10;83.10;;;;;;5120647;27;20735;-53
2022/08/22 12:43:48;;;;;;;4.57;2.60;;;29.00;84.20;;;;;;5111951;28;20268;-53
2022/08/22 12:46:25;;;;;;;5.00;2.03;;;29.00;81.60;;;;;;5112486;28;20203;-52
2022/08/22 12:49:08;;;;;;;3.58;2.50;;;28.90;81.00;;;;;;5112237;28;20227;-52
2022/08/22 12:51:45;;;;;;;4.10;2.50;;;28.90;79.70;;;;;;5112238;28;20211;-52
2022/08/22 12:54:40;;;;;;;6.13;2.70;;;29.00;82.00;;;;;;5111580;28;20666;-53
2022/08/22 12:57:19;;;;;;;3.00;2.33;;;29.00;80.70;;;;;;5109283;28;20199;-53
2022/08/22 12:59:55;;;;;;;6.07;2.75;;;28.90;83.50;;;;;;5112278;28;20223;-53
2022/08/22 13:02:28;;;;;;;5.13;2.30;;;28.80;81.20;;;;;;5112160;28;20247;-53
2022/08/22 13:04:59;;;;;;;5.30;2.65;;;28.90;82.00;;;;;;5112792;28;20693;-53
2022/08/22 13:07:32;;;;;;;4.60;2.40;;;29.20;83.80;;;;;;5111729;28;20208;-53
2022/08/22 13:10:33;;;;;;;4.15;2.30;;;29.20;82.40;;;;;;5112367;28;20680;-52
2022/08/22 13:13:02;;;;;;;4.55;2.30;;;29.20;83.30;;;;;;5111551;28;20227;-53
2022/08/22 13:15:44;;;;;;;4.45;2.85;;;29.30;80.70;;;;;;5100078;27;20207;-53
2022/08/22 13:18:24;;;;;;;4.43;2.60;;;29.40;80.70;;;;;;5107524;28;20249;-53
2022/08/22 13:21:02;;;;;;;6.30;2.78;;;29.50;81.50;;;;;;5111291;28;20767;-53
2022/08/22 13:23:33;;;;;;;5.60;2.63;;;29.70;80.70;;;;;;5110663;28;20277;-52
2022/08/22 13:26:14;;;;;;;4.60;2.30;;;29.70;79.60;;;;;;5111818;28;20199;-53
2022/08/22 13:29:04;;;;;;;5.90;2.70;;;29.70;79.70;;;;;;5111690;28;20207;-52
2022/08/22 13:31:57;;;;;;;4.07;2.70;;;29.70;80.10;;;;;;5097414;28;20601;-52
2022/08/22 13:34:36;;;;;;;5.63;2.28;;;29.70;78.70;;;;;;5110402;28;20242;-53
2022/08/22 13:37:14;;;;;;;4.82;2.55;;;29.70;78.80;;;;;;5124072;27;20218;-52
2022/08/22 13:39:45;;;;;;;4.82;2.97;;;29.70;79.30;;;;;;5110494;28;21055;-53
2022/08/22 13:42:19;;;;;;;4.72;2.35;;;29.70;80.20;;;;;;5123558;27;20223;-52
2022/08/22 13:45:00;;;;;;;3.72;2.55;;;29.70;79.80;;;;;;5118752;27;20215;-52
2022/08/22 13:47:32;;;;;;;3.97;2.60;;;29.50;79.20;;;;;;5125361;27;20203;-53
2022/08/22 13:50:12;;;;;;;3.95;2.58;;;29.30;80.30;;;;;;5119927;27;20195;-51
2022/08/22 13:52:47;;;;;;;4.90;2.70;;;29.10;78.50;;;;;;5103092;27;20235;-53
2022/08/22 13:55:29;;;;;;;4.60;2.50;;;29.20;82.00;;;;;;5104396;28;20664;-53
2022/08/22 13:58:06;;;;;;;3.38;2.53;;;29.30;78.40;;;;;;5120682;27;20610;-53
2022/08/22 14:01:07;;;;;;;5.30;2.97;;;29.40;80.00;;;;;;5127698;27;20214;-53
2022/08/22 14:03:41;;;;;;;3.97;2.65;;;29.50;79.40;;;;;;5109129;28;20768;-53
2022/08/22 14:06:21;;;;;;;4.70;2.70;;;29.60;80.50;;;;;;5111552;28;20199;-52
2022/08/22 14:09:14;;;;;;;3.22;2.60;;;29.70;78.30;;;;;;5110436;28;20268;-53